sensor_id;sensor_type;location;lat;lon;timestamp;temperature;humidity
24560;DHT22;12727;49.934;8.656;2022-10-16T00:01:30;15.80;99.90
24560;DHT22;12727;49.934;8.656;2022-10-16T00:03:57;15.80;99.90
24560;DHT22;12727;49.934;8.656;2022-10-16T00:06:23;15.80;99.90
24560;DHT22;12727;49.934;8.656;2022-10-16T00:08:49;15.80;99.90
24560;DHT22;12727;49.934;8.656;2022-10-16T00:11:15;15.80;99.90
24560;DHT22;12727;49.934;8.656;2022-10-16T00:13:42;15.70;99.90
24560;DHT22;12727;49.934;8.656;2022-10-16T00:16:08;15.70;99.90
24560;DHT22;12727;49.934;8.656;2022-10-16T00:18:34;15.70;99.90
24560;DHT22;12727;49.934;8.656;2022-10-16T00:21:06;15.70;99.90
24560;DHT22;12727;49.934;8.656;2022-10-16T00:23:32;15.70;99.90
24560;DHT22;12727;49.934;8.656;2022-10-16T00:25:59;15.70;99.90
24560;DHT22;12727;49.934;8.656;2022-10-16T00:28:25;15.70;99.90
24560;DHT22;12727;49.934;8.656;2022-10-16T00:30:51;15.70;99.90
24560;DHT22;12727;49.934;8.656;2022-10-16T00:33:17;15.60;99.90
24560;DHT22;12727;49.934;8.656;2022-10-16T00:35:42;15.70;99.90
24560;DHT22;12727;49.934;8.656;2022-10-16T00:38:08;15.70;99.90
24560;DHT22;12727;49.934;8.656;2022-10-16T00:40:34;15.70;99.90
24560;DHT22;12727;49.934;8.656;2022-10-16T00:43:00;15.70;99.90
24560;DHT22;12727;49.934;8.656;2022-10-16T00:45:25;15.70;99.90
24560;DHT22;12727;49.934;8.656;2022-10-16T00:47:51;15.70;99.90
24560;DHT22;12727;49.934;8.656;2022-10-16T00:52:44;15.70;99.90
24560;DHT22;12727;49.934;8.656;2022-10-16T00:55:11;15.70;99.90
24560;DHT22;12727;49.934;8.656;2022-10-16T00:57:36;15.70;99.90
24560;DHT22;12727;49.934;8.656;2022-10-16T01:00:06;15.70;99.90
24560;DHT22;12727;49.934;8.656;2022-10-16T01:02:32;15.70;99.90
24560;DHT22;12727;49.934;8.656;2022-10-16T01:04:57;15.70;99.90
24560;DHT22;12727;49.934;8.656;2022-10-16T01:07:58;15.60;99.90
24560;DHT22;12727;49.934;8.656;2022-10-16T01:12:41;15.60;99.90
24560;DHT22;12727;49.934;8.656;2022-10-16T01:17:35;15.60;99.90
24560;DHT22;12727;49.934;8.656;2022-10-16T01:22:54;15.50;99.90
24560;DHT22;12727;49.934;8.656;2022-10-16T01:25:27;15.50;99.90
24560;DHT22;12727;49.934;8.656;2022-10-16T01:27:56;15.50;99.90
24560;DHT22;12727;49.934;8.656;2022-10-16T01:30:29;15.50;99.90
24560;DHT22;12727;49.934;8.656;2022-10-16T01:32:57;15.50;99.90
24560;DHT22;12727;49.934;8.656;2022-10-16T01:37:56;15.40;99.90
24560;DHT22;12727;49.934;8.656;2022-10-16T01:40:24;15.40;99.90
24560;DHT22;12727;49.934;8.656;2022-10-16T01:43:01;15.40;99.90
24560;DHT22;12727;49.934;8.656;2022-10-16T01:45:28;15.50;99.90
24560;DHT22;12727;49.934;8.656;2022-10-16T01:47:54;15.50;99.90
24560;DHT22;12727;49.934;8.656;2022-10-16T01:50:20;15.40;99.90
24560;DHT22;12727;49.934;8.656;2022-10-16T01:52:48;15.40;99.90
24560;DHT22;12727;49.934;8.656;2022-10-16T01:55:16;15.40;99.90
24560;DHT22;12727;49.934;8.656;2022-10-16T01:57:43;15.50;99.90
24560;DHT22;12727;49.934;8.656;2022-10-16T02:00:11;15.50;99.90
24560;DHT22;12727;49.934;8.656;2022-10-16T02:02:38;15.40;99.90
24560;DHT22;12727;49.934;8.656;2022-10-16T02:05:11;15.40;99.90
24560;DHT22;12727;49.934;8.656;2022-10-16T02:07:38;15.50;99.90
24560;DHT22;12727;49.934;8.656;2022-10-16T02:10:03;15.50;99.90
24560;DHT22;12727;49.934;8.656;2022-10-16T02:12:33;15.50;99.90
24560;DHT22;12727;49.934;8.656;2022-10-16T02:15:00;15.50;99.90
24560;DHT22;12727;49.934;8.656;2022-10-16T02:17:26;15.60;99.90
24560;DHT22;12727;49.934;8.656;2022-10-16T02:19:52;15.50;99.90
24560;DHT22;12727;49.934;8.656;2022-10-16T02:22:21;15.60;99.90
24560;DHT22;12727;49.934;8.656;2022-10-16T02:24:52;15.60;99.90
24560;DHT22;12727;49.934;8.656;2022-10-16T02:27:26;15.60;99.90
24560;DHT22;12727;49.934;8.656;2022-10-16T02:29:55;15.70;99.90
24560;DHT22;12727;49.934;8.656;2022-10-16T02:32:24;15.70;99.90
24560;DHT22;12727;49.934;8.656;2022-10-16T02:34:50;15.70;99.90
24560;DHT22;12727;49.934;8.656;2022-10-16T02:37:16;15.70;99.90
24560;DHT22;12727;49.934;8.656;2022-10-16T02:39:43;15.70;99.90
24560;DHT22;12727;49.934;8.656;2022-10-16T02:42:12;15.70;99.90
24560;DHT22;12727;49.934;8.656;2022-10-16T02:44:38;15.70;99.90
24560;DHT22;12727;49.934;8.656;2022-10-16T02:47:03;15.70;99.90
24560;DHT22;12727;49.934;8.656;2022-10-16T02:49:29;15.70;99.90
24560;DHT22;12727;49.934;8.656;2022-10-16T02:51:54;15.60;99.90
24560;DHT22;12727;49.934;8.656;2022-10-16T02:54:20;15.60;99.90
24560;DHT22;12727;49.934;8.656;2022-10-16T02:56:45;15.60;99.90
24560;DHT22;12727;49.934;8.656;2022-10-16T02:59:11;15.60;99.90
24560;DHT22;12727;49.934;8.656;2022-10-16T03:01:36;15.60;99.90
24560;DHT22;12727;49.934;8.656;2022-10-16T03:04:02;15.60;99.90
24560;DHT22;12727;49.934;8.656;2022-10-16T03:06:27;15.70;99.90
24560;DHT22;12727;49.934;8.656;2022-10-16T03:08:53;15.70;99.90
24560;DHT22;12727;49.934;8.656;2022-10-16T03:11:18;15.70;99.90
24560;DHT22;12727;49.934;8.656;2022-10-16T03:13:44;15.70;99.90
24560;DHT22;12727;49.934;8.656;2022-10-16T03:16:09;15.70;99.90
24560;DHT22;12727;49.934;8.656;2022-10-16T03:18:35;15.70;99.90
24560;DHT22;12727;49.934;8.656;2022-10-16T03:21:00;15.70;99.90
24560;DHT22;12727;49.934;8.656;2022-10-16T03:23:26;15.70;99.90
24560;DHT22;12727;49.934;8.656;2022-10-16T03:25:51;15.70;99.90
24560;DHT22;12727;49.934;8.656;2022-10-16T03:28:17;15.70;99.90
24560;DHT22;12727;49.934;8.656;2022-10-16T03:30:43;15.70;99.90
24560;DHT22;12727;49.934;8.656;2022-10-16T03:33:08;15.70;99.90
24560;DHT22;12727;49.934;8.656;2022-10-16T03:35:34;15.70;99.90
24560;DHT22;12727;49.934;8.656;2022-10-16T03:37:59;15.70;99.90
24560;DHT22;12727;49.934;8.656;2022-10-16T03:40:25;15.70;99.90
24560;DHT22;12727;49.934;8.656;2022-10-16T03:42:50;15.70;99.90
24560;DHT22;12727;49.934;8.656;2022-10-16T03:45:16;15.70;99.90
24560;DHT22;12727;49.934;8.656;2022-10-16T03:47:41;15.70;99.90
24560;DHT22;12727;49.934;8.656;2022-10-16T03:50:07;15.70;99.90
24560;DHT22;12727;49.934;8.656;2022-10-16T03:52:32;15.70;99.90
24560;DHT22;12727;49.934;8.656;2022-10-16T03:54:58;15.80;99.90
24560;DHT22;12727;49.934;8.656;2022-10-16T03:57:24;15.80;99.90
24560;DHT22;12727;49.934;8.656;2022-10-16T03:59:49;15.80;99.90
24560;DHT22;12727;49.934;8.656;2022-10-16T04:02:15;15.70;99.90
24560;DHT22;12727;49.934;8.656;2022-10-16T04:04:40;15.80;99.90
24560;DHT22;12727;49.934;8.656;2022-10-16T04:07:06;15.80;99.90
24560;DHT22;12727;49.934;8.656;2022-10-16T04:09:31;15.80;99.90
24560;DHT22;12727;49.934;8.656;2022-10-16T04:11:56;15.80;99.90
24560;DHT22;12727;49.934;8.656;2022-10-16T04:14:22;15.80;99.90
24560;DHT22;12727;49.934;8.656;2022-10-16T04:16:47;15.80;99.90
24560;DHT22;12727;49.934;8.656;2022-10-16T04:19:13;15.80;99.90
24560;DHT22;12727;49.934;8.656;2022-10-16T04:21:38;15.80;99.90
24560;DHT22;12727;49.934;8.656;2022-10-16T04:24:04;15.80;99.90
24560;DHT22;12727;49.934;8.656;2022-10-16T04:26:29;15.90;99.90
24560;DHT22;12727;49.934;8.656;2022-10-16T04:28:55;15.90;99.90
24560;DHT22;12727;49.934;8.656;2022-10-16T04:31:20;15.90;99.90
24560;DHT22;12727;49.934;8.656;2022-10-16T04:33:46;15.90;99.90
24560;DHT22;12727;49.934;8.656;2022-10-16T04:36:12;15.90;99.90
24560;DHT22;12727;49.934;8.656;2022-10-16T04:38:37;15.90;99.90
24560;DHT22;12727;49.934;8.656;2022-10-16T04:41:05;15.80;99.90
24560;DHT22;12727;49.934;8.656;2022-10-16T04:43:30;15.80;99.90
24560;DHT22;12727;49.934;8.656;2022-10-16T04:45:55;15.90;99.90
24560;DHT22;12727;49.934;8.656;2022-10-16T04:48:21;16.00;99.90
24560;DHT22;12727;49.934;8.656;2022-10-16T04:50:47;16.00;99.90
24560;DHT22;12727;49.934;8.656;2022-10-16T04:53:12;16.00;99.90
24560;DHT22;12727;49.934;8.656;2022-10-16T04:55:38;16.00;99.90
24560;DHT22;12727;49.934;8.656;2022-10-16T04:58:03;16.00;99.90
24560;DHT22;12727;49.934;8.656;2022-10-16T05:00:29;16.00;99.90
24560;DHT22;12727;49.934;8.656;2022-10-16T05:02:54;15.90;99.90
24560;DHT22;12727;49.934;8.656;2022-10-16T05:05:20;15.80;99.90
24560;DHT22;12727;49.934;8.656;2022-10-16T05:07:48;15.80;99.90
24560;DHT22;12727;49.934;8.656;2022-10-16T05:10:15;15.80;99.90
24560;DHT22;12727;49.934;8.656;2022-10-16T05:12:40;15.80;99.90
24560;DHT22;12727;49.934;8.656;2022-10-16T05:15:06;15.80;99.90
24560;DHT22;12727;49.934;8.656;2022-10-16T05:17:31;15.70;99.90
24560;DHT22;12727;49.934;8.656;2022-10-16T05:19:57;15.70;99.90
24560;DHT22;12727;49.934;8.656;2022-10-16T05:22:22;15.70;99.90
24560;DHT22;12727;49.934;8.656;2022-10-16T05:24:48;15.70;99.90
24560;DHT22;12727;49.934;8.656;2022-10-16T05:27:13;15.70;99.90
24560;DHT22;12727;49.934;8.656;2022-10-16T05:29:47;15.70;99.90
24560;DHT22;12727;49.934;8.656;2022-10-16T05:32:16;15.80;99.90
24560;DHT22;12727;49.934;8.656;2022-10-16T05:34:42;15.80;99.90
24560;DHT22;12727;49.934;8.656;2022-10-16T05:37:07;15.80;99.90
24560;DHT22;12727;49.934;8.656;2022-10-16T05:39:33;15.90;99.90
24560;DHT22;12727;49.934;8.656;2022-10-16T05:41:58;15.90;99.90
24560;DHT22;12727;49.934;8.656;2022-10-16T05:44:24;15.90;99.90
24560;DHT22;12727;49.934;8.656;2022-10-16T05:46:50;15.80;99.90
24560;DHT22;12727;49.934;8.656;2022-10-16T05:49:15;15.70;99.90
24560;DHT22;12727;49.934;8.656;2022-10-16T05:51:41;15.60;99.90
24560;DHT22;12727;49.934;8.656;2022-10-16T05:54:07;15.60;99.90
24560;DHT22;12727;49.934;8.656;2022-10-16T05:56:32;15.50;99.90
24560;DHT22;12727;49.934;8.656;2022-10-16T05:58:58;15.50;99.90
24560;DHT22;12727;49.934;8.656;2022-10-16T06:01:23;15.50;99.90
24560;DHT22;12727;49.934;8.656;2022-10-16T06:03:52;15.40;99.90
24560;DHT22;12727;49.934;8.656;2022-10-16T06:06:19;15.50;99.90
24560;DHT22;12727;49.934;8.656;2022-10-16T06:08:45;15.60;99.90
24560;DHT22;12727;49.934;8.656;2022-10-16T06:11:13;15.50;99.90
24560;DHT22;12727;49.934;8.656;2022-10-16T06:13:39;15.60;99.90
24560;DHT22;12727;49.934;8.656;2022-10-16T06:16:07;15.60;99.90
24560;DHT22;12727;49.934;8.656;2022-10-16T06:18:33;15.70;99.90
24560;DHT22;12727;49.934;8.656;2022-10-16T06:20:58;15.70;99.90
24560;DHT22;12727;49.934;8.656;2022-10-16T06:23:24;15.80;99.90
24560;DHT22;12727;49.934;8.656;2022-10-16T06:25:50;15.90;99.90
24560;DHT22;12727;49.934;8.656;2022-10-16T06:28:16;15.90;99.90
24560;DHT22;12727;49.934;8.656;2022-10-16T06:30:41;15.90;99.90
24560;DHT22;12727;49.934;8.656;2022-10-16T06:33:09;15.90;99.90
24560;DHT22;12727;49.934;8.656;2022-10-16T06:35:35;16.00;99.90
24560;DHT22;12727;49.934;8.656;2022-10-16T06:38:01;16.00;99.90
24560;DHT22;12727;49.934;8.656;2022-10-16T06:40:27;16.00;99.90
24560;DHT22;12727;49.934;8.656;2022-10-16T06:42:54;16.00;99.90
24560;DHT22;12727;49.934;8.656;2022-10-16T06:45:19;16.00;99.90
24560;DHT22;12727;49.934;8.656;2022-10-16T06:47:45;16.10;99.90
24560;DHT22;12727;49.934;8.656;2022-10-16T06:50:10;16.00;99.90
24560;DHT22;12727;49.934;8.656;2022-10-16T06:52:36;15.90;99.90
24560;DHT22;12727;49.934;8.656;2022-10-16T06:55:02;15.90;99.90
24560;DHT22;12727;49.934;8.656;2022-10-16T06:57:28;15.80;99.90
24560;DHT22;12727;49.934;8.656;2022-10-16T06:59:54;15.80;99.90
24560;DHT22;12727;49.934;8.656;2022-10-16T07:02:19;15.70;99.90
24560;DHT22;12727;49.934;8.656;2022-10-16T07:04:45;15.80;99.90
24560;DHT22;12727;49.934;8.656;2022-10-16T07:07:10;15.80;99.90
24560;DHT22;12727;49.934;8.656;2022-10-16T07:09:36;16.00;99.90
24560;DHT22;12727;49.934;8.656;2022-10-16T07:12:01;16.10;99.90
24560;DHT22;12727;49.934;8.656;2022-10-16T07:14:27;16.10;99.90
24560;DHT22;12727;49.934;8.656;2022-10-16T07:16:53;16.20;99.90
24560;DHT22;12727;49.934;8.656;2022-10-16T07:19:18;16.30;99.90
24560;DHT22;12727;49.934;8.656;2022-10-16T07:21:44;16.30;99.90
24560;DHT22;12727;49.934;8.656;2022-10-16T07:24:13;16.40;99.90
24560;DHT22;12727;49.934;8.656;2022-10-16T07:26:40;16.30;99.90
24560;DHT22;12727;49.934;8.656;2022-10-16T07:29:06;16.40;99.90
24560;DHT22;12727;49.934;8.656;2022-10-16T07:31:32;16.50;99.90
24560;DHT22;12727;49.934;8.656;2022-10-16T07:33:58;16.40;99.90
24560;DHT22;12727;49.934;8.656;2022-10-16T07:36:24;16.40;99.90
24560;DHT22;12727;49.934;8.656;2022-10-16T07:38:50;16.40;99.90
24560;DHT22;12727;49.934;8.656;2022-10-16T07:41:16;16.40;99.90
24560;DHT22;12727;49.934;8.656;2022-10-16T07:43:49;16.40;99.90
24560;DHT22;12727;49.934;8.656;2022-10-16T07:46:15;16.50;99.90
24560;DHT22;12727;49.934;8.656;2022-10-16T07:48:41;16.50;99.90
24560;DHT22;12727;49.934;8.656;2022-10-16T07:51:11;16.50;99.90
24560;DHT22;12727;49.934;8.656;2022-10-16T07:53:36;16.50;99.90
24560;DHT22;12727;49.934;8.656;2022-10-16T07:56:03;16.50;99.90
24560;DHT22;12727;49.934;8.656;2022-10-16T07:58:29;16.60;99.90
24560;DHT22;12727;49.934;8.656;2022-10-16T08:00:55;16.60;99.90
24560;DHT22;12727;49.934;8.656;2022-10-16T08:03:20;16.60;99.90
24560;DHT22;12727;49.934;8.656;2022-10-16T08:05:46;16.70;99.90
24560;DHT22;12727;49.934;8.656;2022-10-16T08:08:15;16.60;99.90
24560;DHT22;12727;49.934;8.656;2022-10-16T08:10:41;16.60;99.90
24560;DHT22;12727;49.934;8.656;2022-10-16T08:13:07;16.70;99.90
24560;DHT22;12727;49.934;8.656;2022-10-16T08:15:32;16.60;99.90
24560;DHT22;12727;49.934;8.656;2022-10-16T08:17:59;16.60;99.90
24560;DHT22;12727;49.934;8.656;2022-10-16T08:20:25;16.60;99.90
24560;DHT22;12727;49.934;8.656;2022-10-16T08:22:51;16.70;99.90
24560;DHT22;12727;49.934;8.656;2022-10-16T08:25:16;16.60;99.90
24560;DHT22;12727;49.934;8.656;2022-10-16T08:27:42;16.50;99.90
24560;DHT22;12727;49.934;8.656;2022-10-16T08:30:08;16.50;99.90
24560;DHT22;12727;49.934;8.656;2022-10-16T08:32:33;16.50;99.90
24560;DHT22;12727;49.934;8.656;2022-10-16T08:34:59;16.40;99.90
24560;DHT22;12727;49.934;8.656;2022-10-16T08:37:24;16.40;99.90
24560;DHT22;12727;49.934;8.656;2022-10-16T08:39:50;16.30;99.90
24560;DHT22;12727;49.934;8.656;2022-10-16T08:47:49;16.20;99.90
24560;DHT22;12727;49.934;8.656;2022-10-16T08:50:26;16.20;99.90
24560;DHT22;12727;49.934;8.656;2022-10-16T08:52:53;16.10;99.90
24560;DHT22;12727;49.934;8.656;2022-10-16T08:57:57;16.20;99.90
24560;DHT22;12727;49.934;8.656;2022-10-16T09:00:23;16.30;99.90
24560;DHT22;12727;49.934;8.656;2022-10-16T09:02:55;16.30;99.90
24560;DHT22;12727;49.934;8.656;2022-10-16T09:08:13;16.30;99.90
24560;DHT22;12727;49.934;8.656;2022-10-16T09:13:21;16.50;99.90
24560;DHT22;12727;49.934;8.656;2022-10-16T09:16:10;16.50;99.90
24560;DHT22;12727;49.934;8.656;2022-10-16T09:18:44;16.60;99.90
24560;DHT22;12727;49.934;8.656;2022-10-16T09:21:14;16.60;99.90
24560;DHT22;12727;49.934;8.656;2022-10-16T09:23:41;16.60;99.90
24560;DHT22;12727;49.934;8.656;2022-10-16T09:26:09;16.70;99.90
24560;DHT22;12727;49.934;8.656;2022-10-16T09:28:36;16.60;99.90
24560;DHT22;12727;49.934;8.656;2022-10-16T09:31:01;16.80;99.90
24560;DHT22;12727;49.934;8.656;2022-10-16T09:33:33;16.80;99.90
24560;DHT22;12727;49.934;8.656;2022-10-16T09:36:00;16.80;99.90
24560;DHT22;12727;49.934;8.656;2022-10-16T09:38:28;16.80;99.90
24560;DHT22;12727;49.934;8.656;2022-10-16T09:40:58;16.80;99.90
24560;DHT22;12727;49.934;8.656;2022-10-16T09:43:32;16.90;99.90
24560;DHT22;12727;49.934;8.656;2022-10-16T09:46:01;17.30;99.90
24560;DHT22;12727;49.934;8.656;2022-10-16T09:48:28;17.50;99.90
24560;DHT22;12727;49.934;8.656;2022-10-16T09:50:56;17.70;99.90
24560;DHT22;12727;49.934;8.656;2022-10-16T09:53:22;17.90;99.90
24560;DHT22;12727;49.934;8.656;2022-10-16T09:55:48;18.10;99.90
24560;DHT22;12727;49.934;8.656;2022-10-16T09:58:14;19.10;99.90
24560;DHT22;12727;49.934;8.656;2022-10-16T10:00:40;20.00;99.90
24560;DHT22;12727;49.934;8.656;2022-10-16T10:03:10;20.60;99.90
24560;DHT22;12727;49.934;8.656;2022-10-16T10:05:35;21.60;99.90
24560;DHT22;12727;49.934;8.656;2022-10-16T10:08:01;22.00;99.90
24560;DHT22;12727;49.934;8.656;2022-10-16T10:10:37;21.30;99.90
24560;DHT22;12727;49.934;8.656;2022-10-16T10:13:14;20.80;99.90
24560;DHT22;12727;49.934;8.656;2022-10-16T10:15:42;20.60;99.90
24560;DHT22;12727;49.934;8.656;2022-10-16T10:18:18;20.40;99.90
24560;DHT22;12727;49.934;8.656;2022-10-16T10:20:43;20.40;99.90
24560;DHT22;12727;49.934;8.656;2022-10-16T10:23:25;20.10;99.90
24560;DHT22;12727;49.934;8.656;2022-10-16T10:28:46;20.40;99.90
24560;DHT22;12727;49.934;8.656;2022-10-16T10:33:45;20.90;99.90
24560;DHT22;12727;49.934;8.656;2022-10-16T10:38:59;20.90;99.90
24560;DHT22;12727;49.934;8.656;2022-10-16T10:46:43;19.90;99.90
24560;DHT22;12727;49.934;8.656;2022-10-16T10:51:49;22.20;99.90
24560;DHT22;12727;49.934;8.656;2022-10-16T10:54:25;23.50;99.90
24560;DHT22;12727;49.934;8.656;2022-10-16T10:57:02;23.90;99.90
24560;DHT22;12727;49.934;8.656;2022-10-16T10:59:50;24.20;99.80
24560;DHT22;12727;49.934;8.656;2022-10-16T11:02:27;24.10;99.90
24560;DHT22;12727;49.934;8.656;2022-10-16T11:07:30;24.00;99.70
24560;DHT22;12727;49.934;8.656;2022-10-16T11:09:58;23.00;99.90
24560;DHT22;12727;49.934;8.656;2022-10-16T11:12:29;22.30;99.90
24560;DHT22;12727;49.934;8.656;2022-10-16T11:14:58;22.40;99.90
24560;DHT22;12727;49.934;8.656;2022-10-16T11:17:38;23.10;99.90
24560;DHT22;12727;49.934;8.656;2022-10-16T11:20:24;22.80;99.90
24560;DHT22;12727;49.934;8.656;2022-10-16T11:22:55;21.70;99.90
24560;DHT22;12727;49.934;8.656;2022-10-16T11:27:59;20.50;99.90
24560;DHT22;12727;49.934;8.656;2022-10-16T11:30:27;20.40;99.90
24560;DHT22;12727;49.934;8.656;2022-10-16T11:35:24;20.80;99.90
24560;DHT22;12727;49.934;8.656;2022-10-16T11:37:50;20.90;99.90
24560;DHT22;12727;49.934;8.656;2022-10-16T11:40:21;20.80;99.90
24560;DHT22;12727;49.934;8.656;2022-10-16T11:42:51;20.70;99.90
24560;DHT22;12727;49.934;8.656;2022-10-16T11:46:02;20.50;99.90
24560;DHT22;12727;49.934;8.656;2022-10-16T11:50:38;20.70;99.90
24560;DHT22;12727;49.934;8.656;2022-10-16T11:55:41;20.70;99.90
24560;DHT22;12727;49.934;8.656;2022-10-16T12:08:09;20.50;99.90
24560;DHT22;12727;49.934;8.656;2022-10-16T12:10:36;20.30;99.90
24560;DHT22;12727;49.934;8.656;2022-10-16T12:13:26;20.40;99.90
24560;DHT22;12727;49.934;8.656;2022-10-16T12:15:48;20.30;99.90
24560;DHT22;12727;49.934;8.656;2022-10-16T12:18:23;20.30;99.90
24560;DHT22;12727;49.934;8.656;2022-10-16T12:20:58;20.30;99.90
24560;DHT22;12727;49.934;8.656;2022-10-16T12:23:26;20.30;99.90
24560;DHT22;12727;49.934;8.656;2022-10-16T12:25:55;20.30;99.90
24560;DHT22;12727;49.934;8.656;2022-10-16T12:28:22;20.40;99.90
24560;DHT22;12727;49.934;8.656;2022-10-16T12:30:55;20.40;99.90
24560;DHT22;12727;49.934;8.656;2022-10-16T12:33:22;20.60;99.90
24560;DHT22;12727;49.934;8.656;2022-10-16T12:35:48;20.60;99.90
24560;DHT22;12727;49.934;8.656;2022-10-16T12:40:59;20.70;99.90
24560;DHT22;12727;49.934;8.656;2022-10-16T12:46:01;20.70;99.90
24560;DHT22;12727;49.934;8.656;2022-10-16T12:48:27;20.70;99.90
24560;DHT22;12727;49.934;8.656;2022-10-16T12:50:53;20.70;99.90
24560;DHT22;12727;49.934;8.656;2022-10-16T12:53:20;20.80;99.90
24560;DHT22;12727;49.934;8.656;2022-10-16T12:55:52;20.80;99.90
24560;DHT22;12727;49.934;8.656;2022-10-16T13:00:48;20.60;99.90
24560;DHT22;12727;49.934;8.656;2022-10-16T13:03:28;20.60;99.90
24560;DHT22;12727;49.934;8.656;2022-10-16T13:21:53;20.50;99.90
24560;DHT22;12727;49.934;8.656;2022-10-16T13:29:13;20.40;99.90
24560;DHT22;12727;49.934;8.656;2022-10-16T13:31:39;20.40;99.90
24560;DHT22;12727;49.934;8.656;2022-10-16T13:34:05;20.40;99.90
24560;DHT22;12727;49.934;8.656;2022-10-16T13:36:35;20.50;99.90
24560;DHT22;12727;49.934;8.656;2022-10-16T13:39:11;20.50;99.90
24560;DHT22;12727;49.934;8.656;2022-10-16T13:41:37;20.50;99.90
24560;DHT22;12727;49.934;8.656;2022-10-16T13:44:03;20.50;99.90
24560;DHT22;12727;49.934;8.656;2022-10-16T13:46:29;20.50;99.90
24560;DHT22;12727;49.934;8.656;2022-10-16T13:49:20;20.40;99.90
24560;DHT22;12727;49.934;8.656;2022-10-16T13:51:55;20.30;99.90
24560;DHT22;12727;49.934;8.656;2022-10-16T13:54:21;20.20;99.90
24560;DHT22;12727;49.934;8.656;2022-10-16T13:56:47;20.20;99.90
24560;DHT22;12727;49.934;8.656;2022-10-16T13:59:26;20.10;99.90
24560;DHT22;12727;49.934;8.656;2022-10-16T14:01:52;20.10;99.90
24560;DHT22;12727;49.934;8.656;2022-10-16T14:04:19;20.00;99.90
24560;DHT22;12727;49.934;8.656;2022-10-16T14:06:45;20.00;99.90
24560;DHT22;12727;49.934;8.656;2022-10-16T14:09:27;20.00;99.90
24560;DHT22;12727;49.934;8.656;2022-10-16T14:12:03;19.90;99.90
24560;DHT22;12727;49.934;8.656;2022-10-16T14:14:34;19.80;99.90
24560;DHT22;12727;49.934;8.656;2022-10-16T14:17:00;19.80;99.90
24560;DHT22;12727;49.934;8.656;2022-10-16T14:19:27;19.70;99.90
24560;DHT22;12727;49.934;8.656;2022-10-16T14:21:54;19.80;99.90
24560;DHT22;12727;49.934;8.656;2022-10-16T14:24:22;19.70;99.90
24560;DHT22;12727;49.934;8.656;2022-10-16T14:26:49;19.70;99.90
24560;DHT22;12727;49.934;8.656;2022-10-16T14:29:19;19.80;99.90
24560;DHT22;12727;49.934;8.656;2022-10-16T14:31:54;19.80;99.90
24560;DHT22;12727;49.934;8.656;2022-10-16T14:34:27;19.80;99.90
24560;DHT22;12727;49.934;8.656;2022-10-16T14:36:54;19.80;99.90
24560;DHT22;12727;49.934;8.656;2022-10-16T14:39:20;19.80;99.90
24560;DHT22;12727;49.934;8.656;2022-10-16T14:41:47;19.80;99.90
24560;DHT22;12727;49.934;8.656;2022-10-16T14:44:13;19.70;99.90
24560;DHT22;12727;49.934;8.656;2022-10-16T14:46:40;19.70;99.90
24560;DHT22;12727;49.934;8.656;2022-10-16T14:51:35;19.70;99.90
24560;DHT22;12727;49.934;8.656;2022-10-16T14:54:00;19.70;99.90
24560;DHT22;12727;49.934;8.656;2022-10-16T14:56:34;19.60;99.90
24560;DHT22;12727;49.934;8.656;2022-10-16T14:59:07;19.60;99.90
24560;DHT22;12727;49.934;8.656;2022-10-16T15:01:35;19.60;99.90
24560;DHT22;12727;49.934;8.656;2022-10-16T15:04:00;19.50;99.90
24560;DHT22;12727;49.934;8.656;2022-10-16T15:06:26;19.50;99.90
24560;DHT22;12727;49.934;8.656;2022-10-16T15:08:51;19.50;99.90
24560;DHT22;12727;49.934;8.656;2022-10-16T15:11:17;19.50;99.90
24560;DHT22;12727;49.934;8.656;2022-10-16T15:13:44;19.50;99.90
24560;DHT22;12727;49.934;8.656;2022-10-16T15:16:13;19.40;99.90
24560;DHT22;12727;49.934;8.656;2022-10-16T15:18:39;19.40;99.90
24560;DHT22;12727;49.934;8.656;2022-10-16T15:21:05;19.40;99.90
24560;DHT22;12727;49.934;8.656;2022-10-16T15:23:30;19.40;99.90
24560;DHT22;12727;49.934;8.656;2022-10-16T15:25:56;19.40;99.90
24560;DHT22;12727;49.934;8.656;2022-10-16T15:28:22;19.50;99.90
24560;DHT22;12727;49.934;8.656;2022-10-16T15:30:52;19.50;99.90
24560;DHT22;12727;49.934;8.656;2022-10-16T15:33:18;19.40;99.90
24560;DHT22;12727;49.934;8.656;2022-10-16T15:35:48;19.50;99.90
24560;DHT22;12727;49.934;8.656;2022-10-16T15:38:14;19.40;99.90
24560;DHT22;12727;49.934;8.656;2022-10-16T15:40:40;19.40;99.90
24560;DHT22;12727;49.934;8.656;2022-10-16T15:43:05;19.30;99.90
24560;DHT22;12727;49.934;8.656;2022-10-16T15:45:31;19.30;99.90
24560;DHT22;12727;49.934;8.656;2022-10-16T15:47:56;19.20;99.90
24560;DHT22;12727;49.934;8.656;2022-10-16T15:50:22;19.20;99.90
24560;DHT22;12727;49.934;8.656;2022-10-16T15:52:48;19.20;99.90
24560;DHT22;12727;49.934;8.656;2022-10-16T15:55:14;19.20;99.90
24560;DHT22;12727;49.934;8.656;2022-10-16T15:57:40;19.20;99.90
24560;DHT22;12727;49.934;8.656;2022-10-16T16:00:14;19.10;99.90
24560;DHT22;12727;49.934;8.656;2022-10-16T16:02:40;19.10;99.90
24560;DHT22;12727;49.934;8.656;2022-10-16T16:05:07;19.00;99.90
24560;DHT22;12727;49.934;8.656;2022-10-16T16:07:34;18.90;99.90
24560;DHT22;12727;49.934;8.656;2022-10-16T16:09:59;18.90;99.90
24560;DHT22;12727;49.934;8.656;2022-10-16T16:12:25;18.80;99.90
24560;DHT22;12727;49.934;8.656;2022-10-16T16:14:50;18.80;99.90
24560;DHT22;12727;49.934;8.656;2022-10-16T16:17:16;18.70;99.90
24560;DHT22;12727;49.934;8.656;2022-10-16T16:19:42;18.60;99.90
24560;DHT22;12727;49.934;8.656;2022-10-16T16:22:07;18.60;99.90
24560;DHT22;12727;49.934;8.656;2022-10-16T16:24:33;18.50;99.90
24560;DHT22;12727;49.934;8.656;2022-10-16T16:26:58;18.40;99.90
24560;DHT22;12727;49.934;8.656;2022-10-16T16:29:24;18.30;99.90
24560;DHT22;12727;49.934;8.656;2022-10-16T16:31:49;18.30;99.90
24560;DHT22;12727;49.934;8.656;2022-10-16T16:34:15;18.30;99.90
24560;DHT22;12727;49.934;8.656;2022-10-16T16:36:40;18.30;99.90
24560;DHT22;12727;49.934;8.656;2022-10-16T16:39:06;18.10;99.90
24560;DHT22;12727;49.934;8.656;2022-10-16T16:41:32;18.20;99.90
24560;DHT22;12727;49.934;8.656;2022-10-16T16:44:02;18.20;99.90
24560;DHT22;12727;49.934;8.656;2022-10-16T16:46:28;18.20;99.90
24560;DHT22;12727;49.934;8.656;2022-10-16T16:48:53;18.10;99.90
24560;DHT22;12727;49.934;8.656;2022-10-16T16:51:20;18.10;99.90
24560;DHT22;12727;49.934;8.656;2022-10-16T16:53:49;18.00;99.90
24560;DHT22;12727;49.934;8.656;2022-10-16T16:56:15;18.10;99.90
24560;DHT22;12727;49.934;8.656;2022-10-16T16:58:40;18.00;99.90
24560;DHT22;12727;49.934;8.656;2022-10-16T17:01:06;18.10;99.90
24560;DHT22;12727;49.934;8.656;2022-10-16T17:03:34;18.00;99.90
24560;DHT22;12727;49.934;8.656;2022-10-16T17:06:01;17.90;99.90
24560;DHT22;12727;49.934;8.656;2022-10-16T17:08:27;18.00;99.90